createdAt,value
2018-05-09T00:00:25.894Z,5.45
2018-05-09T00:01:31.416Z,5.65
2018-05-09T00:02:37.167Z,5.75
2018-05-09T00:03:42.936Z,5.18
2018-05-09T00:04:48.689Z,5.25
2018-05-09T00:05:54.444Z,5.10
2018-05-09T00:07:00.187Z,5.53
2018-05-09T00:08:05.940Z,5.07
2018-05-09T00:09:12.477Z,5.45
2018-05-09T00:10:18.306Z,5.57
2018-05-09T00:11:24.081Z,5.18
2018-05-09T00:12:29.797Z,5.07
2018-05-09T00:13:35.547Z,5.40
2018-05-09T00:14:41.325Z,4.60
2018-05-09T00:15:47.838Z,4.78
2018-05-09T00:16:53.581Z,5.37
2018-05-09T00:17:59.333Z,4.93
2018-05-09T00:19:05.091Z,4.72
2018-05-09T00:20:11.627Z,4.65
2018-05-09T00:21:17.372Z,5.10
2018-05-09T00:22:23.123Z,5.50
2018-05-09T00:23:28.869Z,4.87
2018-05-09T00:24:35.378Z,5.10
2018-05-09T00:25:41.155Z,5.97
2018-05-09T00:26:46.906Z,4.68
2018-05-09T00:27:52.650Z,5.45
2018-05-09T00:28:59.814Z,5.47
2018-05-09T00:30:04.895Z,4.80
2018-05-09T00:31:10.678Z,5.75
2018-05-09T00:32:16.427Z,5.15
2018-05-09T00:33:22.175Z,5.57
2018-05-09T00:34:28.697Z,5.22
2018-05-09T00:35:34.465Z,5.00
2018-05-09T00:36:41.001Z,5.40
2018-05-09T00:37:46.747Z,5.57
2018-05-09T00:38:52.501Z,5.72
2018-05-09T00:39:58.252Z,5.97
2018-05-09T00:41:03.994Z,5.00
2018-05-09T00:42:10.524Z,5.90
2018-05-09T00:43:16.271Z,5.78
2018-05-09T00:44:22.019Z,5.65
2018-05-09T00:45:27.535Z,5.20
2018-05-09T00:46:33.287Z,5.12
2018-05-09T00:47:39.065Z,5.57
2018-05-09T00:48:44.813Z,5.70
2018-05-09T00:49:51.328Z,5.82
2018-05-09T00:50:57.070Z,5.50
2018-05-09T00:52:02.819Z,5.68
2018-05-09T00:53:08.592Z,5.30
2018-05-09T00:54:33.830Z,5.90
2018-05-09T00:55:39.587Z,5.12
2018-05-09T00:56:45.602Z,6.03
2018-05-09T00:57:52.124Z,5.97
2018-05-09T00:58:57.891Z,6.28
2018-05-09T01:00:03.956Z,6.75
2018-05-09T01:01:09.726Z,5.50
2018-05-09T01:02:15.470Z,6.07
2018-05-09T01:03:21.225Z,4.82
2018-05-09T01:04:27.024Z,6.10
2018-05-09T01:05:32.203Z,5.32
2018-05-09T01:06:39.464Z,6.10
2018-05-09T01:07:45.212Z,5.25
2018-05-09T01:08:50.993Z,5.82
2018-05-09T01:09:56.808Z,6.20
2018-05-09T01:11:02.332Z,5.85
2018-05-09T01:12:08.090Z,5.78
2018-05-09T01:13:13.838Z,5.87
2018-05-09T01:14:19.605Z,6.12
2018-05-09T01:15:26.143Z,5.60
2018-05-09T01:16:31.895Z,5.37
2018-05-09T01:17:38.414Z,6.03
2018-05-09T01:18:44.160Z,6.32
2018-05-09T01:19:49.725Z,5.87
2018-05-09T01:20:55.489Z,5.55
2018-05-09T01:22:01.252Z,5.78
2018-05-09T01:23:07.003Z,5.55
2018-05-09T01:24:12.524Z,6.20
2018-05-09T01:25:18.277Z,5.45
2018-05-09T01:26:24.064Z,6.28
2018-05-09T01:27:30.577Z,6.32
2018-05-09T01:28:36.311Z,5.62
2018-05-09T01:29:42.068Z,6.53
2018-05-09T01:30:47.608Z,5.85
2018-05-09T01:31:53.379Z,5.87
2018-05-09T01:32:59.139Z,5.78
2018-05-09T01:34:05.653Z,5.60
2018-05-09T01:35:11.398Z,6.15
2018-05-09T01:36:17.156Z,5.22
2018-05-09T01:37:22.932Z,6.60
2018-05-09T01:38:29.230Z,6.53
2018-05-09T01:39:35.011Z,5.85
2018-05-09T01:40:40.761Z,6.07
2018-05-09T01:41:47.275Z,6.20
2018-05-09T01:42:53.027Z,6.53
2018-05-09T01:43:58.763Z,6.50
2018-05-09T01:45:04.503Z,6.70
2018-05-09T01:46:10.008Z,6.40
2018-05-09T01:47:15.749Z,5.97
2018-05-09T01:48:21.612Z,6.35
2018-05-09T01:49:27.363Z,6.10
2018-05-09T01:50:33.149Z,7.15
2018-05-09T01:51:39.660Z,5.97
2018-05-09T01:52:45.412Z,5.93
2018-05-09T01:53:51.177Z,6.47
2018-05-09T01:54:57.753Z,6.32
2018-05-09T01:56:03.670Z,6.20
2018-05-09T01:57:09.412Z,6.75
2018-05-09T01:58:15.222Z,6.75
2018-05-09T01:59:20.983Z,6.80
2018-05-09T02:00:26.827Z,7.72
2018-05-09T02:01:32.594Z,7.10
2018-05-09T02:02:39.101Z,6.47
2018-05-09T02:03:44.850Z,7.35
2018-05-09T02:04:50.609Z,7.05
2018-05-09T02:05:56.421Z,6.75
2018-05-09T02:07:02.186Z,6.80
2018-05-09T02:08:07.951Z,6.65
2018-05-09T02:09:13.705Z,7.18
2018-05-09T02:10:20.015Z,6.43
2018-05-09T02:11:25.760Z,5.90
2018-05-09T02:12:32.760Z,6.28
2018-05-09T02:13:40.252Z,6.15
2018-05-09T02:14:45.496Z,6.50
2018-05-09T02:15:52.035Z,6.72
2018-05-09T02:16:57.560Z,6.37
2018-05-09T02:18:03.302Z,6.50
2018-05-09T02:19:09.055Z,5.22
2018-05-09T02:20:14.817Z,6.82
2018-05-09T02:21:21.350Z,6.00
2018-05-09T02:22:27.089Z,6.40
2018-05-09T02:23:32.835Z,5.57
2018-05-09T02:24:38.813Z,6.40
2018-05-09T02:25:45.346Z,6.50
2018-05-09T02:26:52.623Z,5.80
2018-05-09T02:27:59.143Z,6.32
2018-05-09T02:29:04.675Z,6.50
2018-05-09T02:30:10.418Z,6.60
2018-05-09T02:31:16.294Z,6.30
2018-05-09T02:32:22.149Z,6.78
2018-05-09T02:33:27.894Z,6.60
2018-05-09T02:34:33.631Z,6.35
2018-05-09T02:35:39.368Z,6.87
2018-05-09T02:36:45.125Z,7.07
2018-05-09T02:37:51.410Z,6.40
2018-05-09T02:38:57.165Z,7.97
2018-05-09T02:40:02.911Z,7.25
2018-05-09T02:41:08.663Z,7.50
2018-05-09T02:42:14.169Z,7.10
2018-05-09T02:43:19.942Z,7.30
2018-05-09T02:44:25.689Z,6.80
2018-05-09T02:45:31.422Z,6.72
2018-05-09T02:46:37.154Z,6.87
2018-05-09T02:47:42.915Z,7.35
2018-05-09T02:48:48.685Z,7.05
2018-05-09T02:49:54.490Z,7.07
2018-05-09T02:51:01.133Z,6.85
2018-05-09T02:52:06.871Z,7.07
2018-05-09T02:53:12.626Z,7.40
2018-05-09T02:54:18.384Z,6.90
2018-05-09T02:55:24.127Z,6.95
2018-05-09T02:56:29.871Z,7.12
2018-05-09T02:57:35.619Z,8.25
2018-05-09T02:58:41.375Z,7.10
2018-05-09T02:59:47.156Z,7.82
2018-05-09T03:00:52.898Z,7.80
2018-05-09T03:01:58.414Z,7.87
2018-05-09T03:03:04.919Z,7.47
2018-05-09T03:04:10.677Z,7.43
2018-05-09T03:05:16.218Z,7.45
2018-05-09T03:06:21.972Z,8.40
2018-05-09T03:07:27.718Z,7.65
2018-05-09T03:08:33.255Z,7.43
2018-05-09T03:09:39.773Z,7.30
2018-05-09T03:10:45.533Z,7.90
2018-05-09T03:11:51.273Z,7.55
2018-05-09T03:12:57.016Z,7.22
2018-05-09T03:14:02.760Z,6.62
2018-05-09T03:15:08.499Z,7.35
2018-05-09T03:16:14.270Z,8.15
2018-05-09T03:17:20.778Z,7.43
2018-05-09T03:18:26.526Z,7.32
2018-05-09T03:19:32.271Z,7.68
2018-05-09T03:20:38.024Z,7.97
2018-05-09T03:21:43.802Z,7.45
2018-05-09T03:22:49.552Z,8.30
2018-05-09T03:23:55.389Z,7.40
2018-05-09T03:25:01.913Z,7.37
2018-05-09T03:26:08.419Z,7.60
2018-05-09T03:27:14.193Z,7.12
2018-05-09T03:28:19.952Z,7.65
2018-05-09T03:29:25.698Z,7.70
2018-05-09T03:30:31.449Z,7.90
2018-05-09T03:31:37.412Z,7.35
2018-05-09T03:32:43.954Z,8.57
2018-05-09T03:33:49.695Z,7.87
2018-05-09T03:34:55.463Z,9.52
2018-05-09T03:36:01.218Z,9.52
2018-05-09T03:37:06.979Z,9.25
2018-05-09T03:38:12.763Z,9.25
2018-05-09T03:39:18.520Z,9.80
2018-05-09T03:40:25.041Z,9.13
2018-05-09T03:41:30.795Z,9.60
2018-05-09T03:42:36.555Z,9.15
2018-05-09T03:43:43.100Z,8.75
2018-05-09T03:44:49.615Z,9.38
2018-05-09T03:45:55.439Z,9.05
2018-05-09T03:47:01.962Z,8.88
2018-05-09T03:48:07.702Z,8.88
2018-05-09T03:49:13.585Z,8.63
2018-05-09T03:50:20.092Z,7.95
2018-05-09T03:51:25.847Z,8.25
2018-05-09T03:52:31.623Z,8.80
2018-05-09T03:53:37.895Z,8.15
2018-05-09T03:54:43.670Z,7.90
2018-05-09T03:55:49.457Z,8.98
2018-05-09T03:56:55.966Z,8.02
2018-05-09T03:58:01.723Z,8.52
2018-05-09T03:59:07.457Z,7.57
2018-05-09T04:00:13.231Z,7.62
2018-05-09T04:01:19.765Z,7.45
2018-05-09T04:02:44.267Z,7.80
2018-05-09T04:04:06.845Z,7.85
2018-05-09T04:05:29.475Z,8.25
2018-05-09T04:06:52.239Z,7.80
2018-05-09T04:08:14.871Z,8.70
2018-05-09T04:09:34.801Z,8.55
2018-05-09T04:10:40.721Z,8.38
2018-05-09T04:11:46.464Z,8.95
2018-05-09T04:12:52.204Z,8.82
2018-05-09T04:13:57.954Z,8.50
2018-05-09T04:15:03.480Z,9.50
2018-05-09T04:16:09.252Z,8.15
2018-05-09T04:17:15.789Z,8.63
2018-05-09T04:18:21.539Z,8.38
2018-05-09T04:19:28.055Z,8.57
2018-05-09T04:20:33.844Z,8.43
2018-05-09T04:21:39.780Z,9.27
2018-05-09T04:22:46.300Z,8.90
2018-05-09T04:23:52.047Z,8.15
2018-05-09T04:24:57.832Z,9.35
2018-05-09T04:26:04.773Z,8.38
2018-05-09T04:27:11.439Z,8.80
2018-05-09T04:28:17.248Z,9.20
2018-05-09T04:29:22.999Z,9.68
2018-05-09T04:30:28.751Z,10.10
2018-05-09T04:31:34.523Z,10.10
2018-05-09T04:32:41.083Z,11.93
2018-05-09T04:33:47.603Z,10.25
2018-05-09T04:34:53.373Z,10.73
2018-05-09T04:35:59.136Z,10.27
2018-05-09T04:37:05.663Z,10.00
2018-05-09T04:38:12.219Z,10.40
2018-05-09T04:39:18.329Z,10.57
2018-05-09T04:40:24.094Z,10.00
2018-05-09T04:41:29.859Z,9.85
2018-05-09T04:42:36.787Z,9.40
2018-05-09T04:43:42.589Z,13.07
2018-05-09T04:44:49.339Z,11.20
2018-05-09T04:45:55.097Z,9.88
2018-05-09T04:47:01.627Z,9.45
2018-05-09T04:48:07.376Z,9.57
2018-05-09T04:49:13.201Z,9.00
2018-05-09T04:50:19.135Z,9.77
2018-05-09T04:51:24.898Z,9.55
2018-05-09T04:52:30.659Z,10.20
2018-05-09T04:53:36.415Z,9.65
2018-05-09T04:54:43.009Z,9.93
2018-05-09T04:55:48.763Z,9.80
2018-05-09T04:56:54.527Z,9.70
2018-05-09T04:58:00.272Z,8.32
2018-05-09T04:59:06.035Z,9.75
2018-05-09T05:00:12.584Z,10.98
2018-05-09T05:01:18.339Z,10.00
2018-05-09T05:02:24.877Z,9.25
2018-05-09T05:03:30.640Z,9.25
2018-05-09T05:04:37.171Z,9.15
2018-05-09T05:05:42.951Z,10.15
2018-05-09T05:06:49.482Z,9.25
2018-05-09T05:07:55.259Z,9.13
2018-05-09T05:09:01.772Z,8.82
2018-05-09T05:10:07.523Z,9.50
2018-05-09T05:11:13.303Z,9.05
2018-05-09T05:12:19.070Z,9.90
2018-05-09T05:13:24.839Z,10.00
2018-05-09T05:14:30.596Z,9.45
2018-05-09T05:15:36.369Z,8.38
2018-05-09T05:16:42.157Z,9.35
2018-05-09T05:17:48.158Z,9.02
2018-05-09T05:18:54.708Z,8.82
2018-05-09T05:20:00.443Z,8.93
2018-05-09T05:21:06.191Z,8.68
2018-05-09T05:22:12.737Z,8.75
2018-05-09T05:23:18.495Z,10.00
2018-05-09T05:24:25.377Z,9.35
2018-05-09T05:25:31.222Z,9.45
2018-05-09T05:26:37.067Z,9.05
2018-05-09T05:27:42.851Z,9.07
2018-05-09T05:28:48.606Z,9.55
2018-05-09T05:29:54.360Z,9.18
2018-05-09T05:31:00.128Z,9.05
2018-05-09T05:32:06.999Z,8.32
2018-05-09T05:33:12.790Z,8.63
2018-05-09T05:34:18.539Z,9.00
2018-05-09T05:35:24.295Z,9.40
2018-05-09T05:36:30.811Z,9.05
2018-05-09T05:37:36.572Z,9.75
2018-05-09T05:38:42.370Z,8.82
2018-05-09T05:39:48.892Z,8.57
2018-05-09T05:40:54.639Z,8.77
2018-05-09T05:42:01.163Z,9.30
2018-05-09T05:43:06.956Z,10.10
2018-05-09T05:44:13.532Z,10.35
2018-05-09T05:45:19.503Z,9.68
2018-05-09T05:46:25.486Z,9.82
2018-05-09T05:47:31.580Z,9.60
2018-05-09T05:48:37.327Z,9.18
2018-05-09T05:49:43.579Z,8.73
2018-05-09T05:50:49.485Z,8.93
2018-05-09T05:51:55.466Z,9.88
2018-05-09T05:53:01.261Z,9.98
2018-05-09T05:54:07.357Z,10.07
2018-05-09T05:55:13.154Z,10.05
2018-05-09T05:56:20.439Z,10.20
2018-05-09T05:57:26.195Z,9.70
2018-05-09T05:58:32.730Z,9.27
2018-05-09T05:59:38.483Z,9.90
2018-05-09T06:00:44.320Z,9.93
2018-05-09T06:01:50.068Z,9.52
2018-05-09T06:02:55.831Z,10.00
2018-05-09T06:04:02.369Z,9.77
2018-05-09T06:05:07.792Z,9.20
2018-05-09T06:06:13.584Z,9.98
2018-05-09T06:07:19.334Z,9.07
2018-05-09T06:08:25.093Z,9.25
2018-05-09T06:09:30.858Z,9.65
2018-05-09T06:10:36.618Z,9.95
2018-05-09T06:11:42.389Z,9.15
2018-05-09T06:12:47.903Z,9.18
2018-05-09T06:13:54.431Z,9.48
2018-05-09T06:15:00.178Z,9.07
2018-05-09T06:16:05.709Z,9.65
2018-05-09T06:17:11.509Z,9.30
2018-05-09T06:18:18.222Z,9.25
2018-05-09T06:19:23.977Z,9.48
2018-05-09T06:20:29.737Z,9.60
2018-05-09T06:21:36.268Z,9.60
2018-05-09T06:22:42.052Z,9.90
2018-05-09T06:23:47.853Z,9.18
2018-05-09T06:24:53.771Z,9.60
2018-05-09T06:25:59.511Z,8.73
2018-05-09T06:27:05.329Z,8.70
2018-05-09T06:28:11.100Z,8.98
2018-05-09T06:29:16.849Z,8.75
2018-05-09T06:30:22.619Z,8.43
2018-05-09T06:31:29.137Z,8.45
2018-05-09T06:32:34.875Z,8.65
2018-05-09T06:33:40.653Z,8.27
2018-05-09T06:34:46.388Z,8.55
2018-05-09T06:35:52.143Z,8.93
2018-05-09T06:36:57.891Z,8.23
2018-05-09T06:38:04.399Z,8.77
2018-05-09T06:39:09.952Z,8.10
2018-05-09T06:40:15.692Z,7.95
2018-05-09T06:41:21.431Z,8.25
2018-05-09T06:42:27.179Z,7.90
2018-05-09T06:43:32.943Z,8.65
2018-05-09T06:44:40.222Z,8.65
2018-05-09T06:45:45.974Z,8.43
2018-05-09T06:46:51.706Z,8.35
2018-05-09T06:47:57.455Z,8.05
2018-05-09T06:49:04.013Z,7.95
2018-05-09T06:50:09.781Z,8.35
2018-05-09T06:51:15.544Z,9.20
2018-05-09T06:52:21.299Z,9.45
2018-05-09T06:53:27.052Z,8.50
2018-05-09T06:54:32.809Z,8.73
2018-05-09T06:55:38.583Z,8.45
2018-05-09T06:56:44.368Z,9.10
2018-05-09T06:57:50.115Z,8.60
2018-05-09T06:58:55.881Z,9.00
2018-05-09T07:00:01.852Z,8.75
2018-05-09T07:01:08.355Z,9.23
2018-05-09T07:02:14.098Z,9.13
2018-05-09T07:03:19.615Z,8.32
2018-05-09T07:04:25.371Z,8.30
2018-05-09T07:05:31.115Z,8.65
2018-05-09T07:06:37.042Z,8.15
2018-05-09T07:07:42.861Z,7.90
2018-05-09T07:08:49.369Z,8.57
2018-05-09T07:09:55.111Z,7.90
2018-05-09T07:11:00.855Z,8.43
2018-05-09T07:12:06.682Z,7.70
2018-05-09T07:13:13.346Z,8.20
2018-05-09T07:14:19.102Z,7.22
2018-05-09T07:15:24.847Z,8.55
2018-05-09T07:16:30.596Z,7.32
2018-05-09T07:17:36.375Z,7.22
2018-05-09T07:18:42.119Z,7.45
2018-05-09T07:19:47.860Z,7.75
2018-05-09T07:20:53.607Z,7.75
2018-05-09T07:22:00.116Z,7.45
2018-05-09T07:23:05.937Z,7.22
2018-05-09T07:24:12.592Z,7.45
2018-05-09T07:25:18.677Z,6.72
2018-05-09T07:26:25.928Z,7.70
2018-05-09T07:27:31.893Z,8.18
2018-05-09T07:28:37.427Z,7.30
2018-05-09T07:29:43.171Z,8.10
2018-05-09T07:30:48.911Z,7.60
2018-05-09T07:31:54.667Z,8.18
2018-05-09T07:33:01.178Z,7.60
2018-05-09T07:34:06.952Z,6.28
2018-05-09T07:35:12.701Z,6.37
2018-05-09T07:36:18.454Z,5.80
2018-05-09T07:37:24.200Z,5.50
2018-05-09T07:38:29.946Z,5.68
2018-05-09T07:39:36.482Z,6.05
2018-05-09T07:40:42.356Z,6.10
2018-05-09T07:41:48.864Z,6.82
2018-05-09T07:42:54.762Z,7.32
2018-05-09T07:44:00.695Z,5.93
2018-05-09T07:45:07.244Z,5.70
2018-05-09T07:46:13.001Z,5.40
2018-05-09T07:47:19.508Z,6.32
2018-05-09T07:48:26.024Z,6.03
2018-05-09T07:49:32.545Z,5.93
2018-05-09T07:50:38.322Z,5.10
2018-05-09T07:51:44.848Z,5.62
2018-05-09T07:52:50.603Z,5.60
2018-05-09T07:53:57.864Z,5.70
2018-05-09T07:55:03.374Z,5.45
2018-05-09T07:56:09.147Z,5.20
2018-05-09T07:57:14.918Z,5.43
2018-05-09T07:58:21.431Z,4.90
2018-05-09T07:59:27.187Z,5.62
2018-05-09T08:00:32.925Z,5.05
2018-05-09T08:01:38.473Z,4.87
2018-05-09T08:02:43.955Z,4.63
2018-05-09T08:03:49.706Z,4.75
2018-05-09T08:04:54.631Z,5.00
2018-05-09T08:06:00.171Z,5.20
2018-05-09T08:07:05.830Z,5.37
2018-05-09T08:08:12.092Z,5.73
2018-05-09T08:09:18.335Z,4.90
2018-05-09T08:10:24.589Z,5.90
2018-05-09T08:11:30.846Z,4.90
2018-05-09T08:12:37.154Z,5.40
2018-05-09T08:13:42.864Z,4.80
2018-05-09T08:14:48.343Z,5.30
2018-05-09T08:15:53.820Z,4.63
2018-05-09T08:16:59.082Z,5.40
2018-05-09T08:18:04.578Z,4.50
2018-05-09T08:19:10.828Z,4.90
2018-05-09T08:20:17.073Z,4.50
2018-05-09T08:21:23.335Z,3.93
2018-05-09T08:22:29.095Z,4.15
2018-05-09T08:23:34.863Z,5.05
2018-05-09T08:24:41.384Z,5.10
2018-05-09T08:25:47.127Z,4.75
2018-05-09T08:26:52.882Z,5.15
2018-05-09T08:27:58.453Z,5.28
2018-05-09T08:29:04.990Z,5.82
2018-05-09T08:30:11.311Z,5.30
2018-05-09T08:31:17.066Z,4.65
2018-05-09T08:32:23.599Z,4.90
2018-05-09T08:33:29.089Z,4.37
2018-05-09T08:34:34.606Z,5.27
2018-05-09T08:35:40.105Z,5.03
2018-05-09T08:36:45.892Z,4.80
2018-05-09T08:37:51.813Z,4.40
2018-05-09T08:38:58.092Z,4.40
2018-05-09T08:40:03.857Z,4.65
2018-05-09T08:41:09.344Z,4.60
2018-05-09T08:42:16.111Z,5.12
2018-05-09T08:43:21.903Z,4.90
2018-05-09T08:44:27.827Z,4.87
2018-05-09T08:45:34.363Z,4.40
2018-05-09T08:46:40.891Z,4.47
2018-05-09T08:47:46.656Z,4.45
2018-05-09T08:48:52.424Z,4.72
2018-05-09T08:49:57.911Z,4.70
2018-05-09T08:51:03.690Z,4.72
2018-05-09T08:52:09.465Z,4.20
2018-05-09T08:53:15.974Z,4.75
2018-05-09T08:54:21.728Z,4.87
2018-05-09T08:55:27.483Z,4.50
2018-05-09T08:56:33.355Z,4.82
2018-05-09T08:57:39.101Z,4.80
2018-05-09T08:58:44.867Z,4.50
2018-05-09T08:59:50.621Z,5.10
2018-05-09T09:00:56.377Z,5.53
2018-05-09T09:02:02.149Z,4.75
2018-05-09T09:03:08.944Z,4.80
2018-05-09T09:04:14.925Z,5.37
2018-05-09T09:05:20.864Z,4.68
2018-05-09T09:06:26.639Z,4.35
2018-05-09T09:07:32.618Z,4.55
2018-05-09T09:08:38.366Z,5.43
2018-05-09T09:09:44.123Z,4.90
2018-05-09T09:10:49.929Z,4.55
2018-05-09T09:11:55.831Z,5.40
2018-05-09T09:13:01.607Z,5.10
2018-05-09T09:14:07.792Z,4.28
2018-05-09T09:15:13.586Z,6.10
2018-05-09T09:16:19.515Z,4.43
2018-05-09T09:17:25.036Z,4.57
2018-05-09T09:18:30.867Z,4.55
2018-05-09T09:19:36.560Z,3.10
2018-05-09T09:20:43.152Z,2.40
2018-05-09T09:21:49.819Z,3.40
2018-05-09T09:22:55.578Z,3.85
2018-05-09T09:24:01.350Z,4.12
2018-05-09T09:25:07.104Z,3.80
2018-05-09T09:26:12.868Z,3.40
2018-05-09T09:27:18.623Z,4.15
2018-05-09T09:28:24.383Z,4.22
2018-05-09T09:29:29.838Z,4.22
2018-05-09T09:30:35.252Z,4.68
2018-05-09T09:31:40.999Z,4.30
2018-05-09T09:32:46.759Z,4.75
2018-05-09T09:33:52.250Z,3.93
2018-05-09T09:34:57.756Z,4.60
2018-05-09T09:36:03.233Z,4.53
2018-05-09T09:37:08.979Z,4.57
2018-05-09T09:38:14.481Z,4.30
2018-05-09T09:39:20.997Z,4.50
2018-05-09T09:40:26.786Z,3.35
2018-05-09T09:41:32.319Z,4.37
2018-05-09T09:42:37.976Z,3.97
2018-05-09T09:43:43.731Z,3.72
2018-05-09T09:44:49.212Z,3.70
2018-05-09T09:45:54.703Z,3.80
2018-05-09T09:47:00.177Z,3.67
2018-05-09T09:48:05.657Z,3.77
2018-05-09T09:49:11.132Z,3.73
2018-05-09T09:50:16.611Z,4.00
2018-05-09T09:51:22.138Z,3.80
2018-05-09T09:52:27.628Z,3.93
2018-05-09T09:53:33.868Z,3.80
2018-05-09T09:54:39.358Z,4.10
2018-05-09T09:55:44.878Z,3.93
2018-05-09T09:56:50.378Z,3.17
2018-05-09T09:57:55.870Z,3.40
2018-05-09T09:59:02.375Z,3.80
2018-05-09T10:00:07.855Z,3.83
2018-05-09T10:01:14.383Z,4.18
2018-05-09T10:02:20.667Z,4.00
2018-05-09T10:03:27.183Z,3.87
2018-05-09T10:04:32.935Z,3.28
2018-05-09T10:05:38.687Z,3.65
2018-05-09T10:06:44.224Z,4.00
2018-05-09T10:07:49.990Z,3.87
2018-05-09T10:08:56.509Z,3.90
2018-05-09T10:10:02.300Z,3.50
2018-05-09T10:11:08.812Z,3.80
2018-05-09T10:12:14.562Z,4.07
2018-05-09T10:13:20.334Z,3.80
2018-05-09T10:14:26.647Z,3.87
2018-05-09T10:15:32.399Z,4.03
2018-05-09T10:16:38.160Z,3.28
2018-05-09T10:17:43.920Z,3.85
2018-05-09T10:18:50.467Z,4.37
2018-05-09T10:19:56.220Z,3.15
2018-05-09T10:21:02.746Z,3.70
2018-05-09T10:22:08.490Z,3.75
2018-05-09T10:23:14.363Z,2.72
2018-05-09T10:24:21.071Z,3.10
2018-05-09T10:25:26.827Z,3.37
2018-05-09T10:26:32.789Z,3.00
2018-05-09T10:27:38.535Z,3.00
2018-05-09T10:28:44.283Z,2.60
2018-05-09T10:29:50.057Z,3.33
2018-05-09T10:30:55.896Z,3.05
2018-05-09T10:32:01.455Z,3.30
2018-05-09T10:33:07.216Z,3.40
2018-05-09T10:34:12.764Z,3.45
2018-05-09T10:35:18.536Z,3.22
2018-05-09T10:36:25.059Z,3.67
2018-05-09T10:37:30.812Z,3.55
2018-05-09T10:38:36.567Z,4.47
2018-05-09T10:39:42.344Z,3.97
2018-05-09T10:40:48.122Z,3.95
2018-05-09T10:41:53.871Z,4.15
2018-05-09T10:42:59.423Z,4.55
2018-05-09T10:44:05.176Z,4.60
2018-05-09T10:45:11.692Z,3.30
2018-05-09T10:46:17.473Z,4.00
2018-05-09T10:47:23.219Z,3.90
2018-05-09T10:48:29.511Z,3.72
2018-05-09T10:49:35.280Z,4.20
2018-05-09T10:50:41.025Z,3.70
2018-05-09T10:51:47.006Z,3.87
2018-05-09T10:52:52.746Z,4.18
2018-05-09T10:53:59.263Z,3.58
2018-05-09T10:55:05.022Z,3.97
2018-05-09T10:56:10.763Z,3.35
2018-05-09T10:57:16.613Z,3.72
2018-05-09T10:58:22.511Z,3.78
2018-05-09T10:59:29.032Z,3.97
2018-05-09T11:00:34.786Z,3.90
2018-05-09T11:01:41.301Z,3.60
2018-05-09T11:02:47.075Z,3.70
2018-05-09T11:03:52.848Z,3.85
2018-05-09T11:04:58.603Z,3.65
2018-05-09T11:06:04.352Z,3.72
2018-05-09T11:07:10.094Z,3.67
2018-05-09T11:08:15.885Z,3.25
2018-05-09T11:09:21.647Z,2.87
2018-05-09T11:10:27.220Z,2.90
2018-05-09T11:11:33.165Z,3.95
2018-05-09T11:12:38.955Z,3.75
2018-05-09T11:13:45.487Z,3.45
2018-05-09T11:14:52.747Z,3.00
2018-05-09T11:15:58.266Z,3.10
2018-05-09T11:17:04.027Z,3.00
2018-05-09T11:18:09.783Z,3.95
2018-05-09T11:19:16.031Z,3.22
2018-05-09T11:20:22.033Z,3.30
2018-05-09T11:21:27.779Z,3.50
2018-05-09T11:22:33.621Z,3.50
2018-05-09T11:23:39.367Z,3.40
2018-05-09T11:24:45.210Z,3.30
2018-05-09T11:25:52.615Z,2.92
2018-05-09T11:26:59.130Z,3.50
2018-05-09T11:28:05.640Z,3.50
2018-05-09T11:29:11.195Z,3.50
2018-05-09T11:30:18.479Z,2.95
2018-05-09T11:31:24.224Z,3.83
2018-05-09T11:32:29.966Z,3.60
2018-05-09T11:33:35.716Z,3.80
2018-05-09T11:34:42.237Z,3.70
2018-05-09T11:35:48.025Z,3.45
2018-05-09T11:36:54.535Z,4.03
2018-05-09T11:38:00.304Z,3.80
2018-05-09T11:39:05.846Z,3.70
2018-05-09T11:40:11.597Z,3.80
2018-05-09T11:41:18.143Z,4.00
2018-05-09T11:42:23.887Z,4.28
2018-05-09T11:43:29.718Z,4.40
2018-05-09T11:44:35.480Z,4.40
2018-05-09T11:45:41.421Z,3.90
2018-05-09T11:46:47.975Z,4.55
2018-05-09T11:47:53.724Z,4.28
2018-05-09T11:48:59.475Z,4.32
2018-05-09T11:50:06.195Z,3.90
2018-05-09T11:51:11.942Z,3.97
2018-05-09T11:52:17.720Z,4.78
2018-05-09T11:53:24.447Z,4.43
2018-05-09T11:54:29.972Z,4.97
2018-05-09T11:55:35.723Z,4.60
2018-05-09T11:56:41.479Z,3.97
2018-05-09T11:57:47.253Z,4.15
2018-05-09T11:58:53.767Z,4.45
2018-05-09T11:59:59.524Z,5.20
2018-05-09T12:01:05.271Z,4.85
2018-05-09T12:02:11.128Z,5.00
2018-05-09T12:03:17.784Z,5.30
2018-05-09T12:04:23.963Z,4.95
2018-05-09T12:05:30.473Z,5.30
2018-05-09T12:06:36.227Z,5.65
2018-05-09T12:07:41.997Z,6.10
2018-05-09T12:08:48.539Z,5.40
2018-05-09T12:09:54.357Z,5.05
2018-05-09T12:11:00.100Z,5.40
2018-05-09T12:12:05.856Z,5.15
2018-05-09T12:13:11.600Z,4.90
2018-05-09T12:14:17.374Z,5.37
2018-05-09T12:15:23.126Z,5.15
2018-05-09T12:16:28.876Z,3.92
2018-05-09T12:17:34.624Z,4.55
2018-05-09T12:18:40.395Z,4.30
2018-05-09T12:19:46.266Z,4.40
2018-05-09T12:20:52.844Z,5.57
2018-05-09T12:21:59.357Z,4.87
2018-05-09T12:23:05.100Z,4.78
2018-05-09T12:24:10.854Z,5.15
2018-05-09T12:25:16.632Z,5.20
2018-05-09T12:26:22.387Z,5.68
2018-05-09T12:27:28.139Z,6.25
2018-05-09T12:28:33.901Z,4.70
2018-05-09T12:29:39.653Z,4.90
2018-05-09T12:30:45.437Z,4.55
2018-05-09T12:31:51.941Z,5.37
2018-05-09T12:32:57.697Z,5.15
2018-05-09T12:34:03.440Z,5.18
2018-05-09T12:35:09.201Z,4.87
2018-05-09T12:36:15.757Z,4.85
2018-05-09T12:37:23.020Z,5.78
2018-05-09T12:38:28.579Z,5.37
2018-05-09T12:39:35.102Z,5.10
2018-05-09T12:40:40.847Z,5.18
2018-05-09T12:41:46.616Z,5.25
2018-05-09T12:42:52.362Z,6.00
2018-05-09T12:43:58.879Z,4.40
2018-05-09T12:45:04.626Z,6.12
2018-05-09T12:46:10.394Z,5.85
2018-05-09T12:47:16.184Z,5.55
2018-05-09T12:48:21.943Z,4.55
2018-05-09T12:49:27.708Z,4.47
2018-05-09T12:50:33.439Z,5.30
2018-05-09T12:51:39.202Z,5.47
2018-05-09T12:52:44.984Z,4.55
2018-05-09T12:53:50.750Z,4.80
2018-05-09T12:54:56.554Z,4.62
2018-05-09T12:56:03.065Z,4.90
2018-05-09T12:57:08.820Z,4.07
2018-05-09T12:58:14.594Z,4.70
2018-05-09T12:59:20.383Z,3.90
2018-05-09T13:00:26.924Z,4.22
2018-05-09T13:01:32.887Z,4.43
2018-05-09T13:02:38.639Z,4.62
2018-05-09T13:03:44.417Z,3.53
2018-05-09T13:04:50.931Z,3.62
2018-05-09T13:05:56.458Z,3.78
2018-05-09T13:07:02.217Z,3.97
2018-05-09T13:08:09.488Z,3.33
2018-05-09T13:09:15.255Z,4.00
2018-05-09T13:10:21.782Z,3.70
2018-05-09T13:11:27.523Z,4.20
2018-05-09T13:12:33.275Z,3.05
2018-05-09T13:13:39.025Z,3.25
2018-05-09T13:15:54.707Z,2.60
2018-05-09T13:17:00.459Z,3.10
2018-05-09T13:18:06.217Z,2.70
2018-05-09T13:19:12.734Z,2.92
2018-05-09T13:20:18.491Z,3.45
2018-05-09T13:21:25.032Z,3.20
2018-05-09T13:22:30.778Z,2.70
2018-05-09T13:23:36.748Z,2.50
2018-05-09T13:24:42.272Z,3.08
2018-05-09T13:25:48.036Z,2.87
2018-05-09T13:26:54.020Z,2.58
2018-05-09T13:27:59.768Z,2.22
2018-05-09T13:29:05.288Z,2.40
2018-05-09T13:30:11.042Z,3.10
2018-05-09T13:31:16.799Z,2.75
2018-05-09T13:32:22.575Z,2.67
2018-05-09T13:33:29.096Z,2.15
2018-05-09T13:34:34.855Z,2.15
2018-05-09T13:35:40.603Z,2.55
2018-05-09T13:36:46.360Z,2.10
2018-05-09T13:37:52.140Z,2.35
2018-05-09T13:38:57.920Z,2.05
2018-05-09T13:40:03.760Z,2.40
2018-05-09T13:41:09.643Z,2.03
2018-05-09T13:42:16.155Z,2.17
2018-05-09T13:43:21.935Z,1.98
2018-05-09T13:44:27.689Z,2.22
2018-05-09T13:45:34.201Z,2.60
2018-05-09T13:46:39.966Z,1.95
2018-05-09T13:47:45.934Z,2.22
2018-05-09T13:48:52.474Z,2.08
2018-05-09T13:49:58.233Z,2.25
2018-05-09T13:51:04.758Z,2.67
2018-05-09T13:52:10.715Z,2.00
2018-05-09T13:53:16.235Z,2.60
2018-05-09T13:54:22.004Z,2.78
2018-05-09T13:55:27.754Z,2.92
2018-05-09T13:56:33.516Z,2.70
2018-05-09T13:57:39.263Z,3.83
2018-05-09T13:58:45.035Z,3.28
2018-05-09T13:59:50.813Z,2.78
2018-05-09T14:00:56.564Z,3.03
2018-05-09T14:02:03.079Z,3.30
2018-05-09T14:03:08.832Z,3.20
2018-05-09T14:04:14.584Z,3.60
2018-05-09T14:05:21.861Z,3.50
2018-05-09T14:06:27.615Z,2.90
2018-05-09T14:07:34.139Z,4.20
2018-05-09T14:08:39.887Z,3.75
2018-05-09T14:09:45.677Z,2.70
2018-05-09T14:10:51.639Z,3.20
2018-05-09T14:11:57.529Z,3.10
2018-05-09T14:13:03.283Z,3.00
2018-05-09T14:14:09.059Z,3.83
2018-05-09T14:15:15.580Z,2.60
2018-05-09T14:16:22.115Z,3.00
2018-05-09T14:17:27.880Z,3.28
2018-05-09T14:18:33.648Z,3.10
2018-05-09T14:19:40.166Z,3.50
2018-05-09T14:20:45.917Z,3.08
2018-05-09T14:21:51.695Z,3.15
2018-05-09T14:22:58.236Z,2.72
2018-05-09T14:24:03.983Z,3.10
2018-05-09T14:25:09.778Z,3.60
2018-05-09T14:26:16.463Z,3.55
2018-05-09T14:27:22.264Z,3.83
2018-05-09T14:28:28.970Z,3.20
2018-05-09T14:29:34.745Z,3.70
2018-05-09T14:30:41.287Z,3.67
2018-05-09T14:31:47.047Z,3.40
2018-05-09T14:32:53.580Z,3.20
2018-05-09T14:33:59.427Z,3.33
2018-05-09T14:35:04.873Z,3.87
2018-05-09T14:36:10.659Z,3.37
2018-05-09T14:37:16.486Z,3.90
2018-05-09T14:38:23.026Z,3.78
2018-05-09T14:39:29.535Z,3.50